sensor_id;sensor_type;location;lat;lon;timestamp;temperature;humidity
23827;DHT22;12094;50.822;4.376;2023-10-08T00:11:23;17.20;99.90
23827;DHT22;12094;50.822;4.376;2023-10-08T00:13:50;17.20;99.90
23827;DHT22;12094;50.822;4.376;2023-10-08T00:16:18;17.10;99.90
23827;DHT22;12094;50.822;4.376;2023-10-08T00:18:48;17.00;99.90
23827;DHT22;12094;50.822;4.376;2023-10-08T00:21:21;17.10;99.90
23827;DHT22;12094;50.822;4.376;2023-10-08T00:23:55;17.00;99.90
23827;DHT22;12094;50.822;4.376;2023-10-08T00:26:25;16.80;99.90
23827;DHT22;12094;50.822;4.376;2023-10-08T00:28:58;16.80;99.90
23827;DHT22;12094;50.822;4.376;2023-10-08T00:31:33;16.80;99.90
23827;DHT22;12094;50.822;4.376;2023-10-08T00:34:08;16.70;99.90
23827;DHT22;12094;50.822;4.376;2023-10-08T00:36:47;16.70;99.90
23827;DHT22;12094;50.822;4.376;2023-10-08T00:39:14;16.80;99.90
23827;DHT22;12094;50.822;4.376;2023-10-08T00:41:50;16.80;99.90
23827;DHT22;12094;50.822;4.376;2023-10-08T00:44:17;17.20;99.90
23827;DHT22;12094;50.822;4.376;2023-10-08T00:46:58;17.20;99.90
23827;DHT22;12094;50.822;4.376;2023-10-08T00:49:31;17.10;99.90
23827;DHT22;12094;50.822;4.376;2023-10-08T00:52:12;17.10;99.90
23827;DHT22;12094;50.822;4.376;2023-10-08T00:54:40;17.00;99.90
23827;DHT22;12094;50.822;4.376;2023-10-08T00:57:16;16.80;99.90
23827;DHT22;12094;50.822;4.376;2023-10-08T00:59:48;16.70;99.90
23827;DHT22;12094;50.822;4.376;2023-10-08T01:02:28;16.80;99.90
23827;DHT22;12094;50.822;4.376;2023-10-08T01:04:58;16.80;99.90
23827;DHT22;12094;50.822;4.376;2023-10-08T01:07:27;16.70;99.90
23827;DHT22;12094;50.822;4.376;2023-10-08T01:09:54;16.90;99.90
23827;DHT22;12094;50.822;4.376;2023-10-08T01:12:26;16.90;99.90
23827;DHT22;12094;50.822;4.376;2023-10-08T01:15:00;16.80;99.90
23827;DHT22;12094;50.822;4.376;2023-10-08T01:17:43;16.70;99.90
23827;DHT22;12094;50.822;4.376;2023-10-08T01:20:28;16.70;99.90
23827;DHT22;12094;50.822;4.376;2023-10-08T01:23:07;16.70;99.90
23827;DHT22;12094;50.822;4.376;2023-10-08T01:25:43;16.70;99.90
23827;DHT22;12094;50.822;4.376;2023-10-08T01:28:20;16.60;99.90
23827;DHT22;12094;50.822;4.376;2023-10-08T01:30:57;16.60;99.90
23827;DHT22;12094;50.822;4.376;2023-10-08T01:33:27;16.60;99.90
23827;DHT22;12094;50.822;4.376;2023-10-08T01:35:59;16.40;99.90
23827;DHT22;12094;50.822;4.376;2023-10-08T01:38:32;16.50;99.90
23827;DHT22;12094;50.822;4.376;2023-10-08T01:41:01;16.50;99.90
23827;DHT22;12094;50.822;4.376;2023-10-08T01:43:46;16.50;99.90
23827;DHT22;12094;50.822;4.376;2023-10-08T01:46:13;16.40;99.90
23827;DHT22;12094;50.822;4.376;2023-10-08T01:48:44;16.30;99.90
23827;DHT22;12094;50.822;4.376;2023-10-08T01:51:12;16.20;99.90
23827;DHT22;12094;50.822;4.376;2023-10-08T01:53:53;16.20;99.90
23827;DHT22;12094;50.822;4.376;2023-10-08T01:56:21;16.10;99.90
23827;DHT22;12094;50.822;4.376;2023-10-08T02:01:41;16.20;99.90
23827;DHT22;12094;50.822;4.376;2023-10-08T02:04:12;16.30;99.90
23827;DHT22;12094;50.822;4.376;2023-10-08T02:06:40;16.20;99.90
23827;DHT22;12094;50.822;4.376;2023-10-08T02:12:02;16.20;99.90
23827;DHT22;12094;50.822;4.376;2023-10-08T02:14:30;16.20;99.90
23827;DHT22;12094;50.822;4.376;2023-10-08T02:16:58;16.30;99.90
23827;DHT22;12094;50.822;4.376;2023-10-08T02:19:34;16.30;99.90
23827;DHT22;12094;50.822;4.376;2023-10-08T02:30:47;16.20;99.90
23827;DHT22;12094;50.822;4.376;2023-10-08T02:33:14;16.10;99.90
23827;DHT22;12094;50.822;4.376;2023-10-08T02:35:42;16.20;99.90
23827;DHT22;12094;50.822;4.376;2023-10-08T02:38:11;16.10;99.90
23827;DHT22;12094;50.822;4.376;2023-10-08T02:40:39;16.10;99.90
23827;DHT22;12094;50.822;4.376;2023-10-08T02:43:16;16.10;99.90
23827;DHT22;12094;50.822;4.376;2023-10-08T02:45:43;16.00;99.90
23827;DHT22;12094;50.822;4.376;2023-10-08T02:48:14;16.00;99.90
23827;DHT22;12094;50.822;4.376;2023-10-08T02:50:43;16.20;99.90
23827;DHT22;12094;50.822;4.376;2023-10-08T02:53:13;16.10;99.90
23827;DHT22;12094;50.822;4.376;2023-10-08T02:55:52;16.10;99.90
23827;DHT22;12094;50.822;4.376;2023-10-08T02:58:24;16.10;99.90
23827;DHT22;12094;50.822;4.376;2023-10-08T03:00:52;16.10;99.90
23827;DHT22;12094;50.822;4.376;2023-10-08T03:03:20;16.20;99.90
23827;DHT22;12094;50.822;4.376;2023-10-08T03:05:53;16.30;99.90
23827;DHT22;12094;50.822;4.376;2023-10-08T03:08:23;16.30;99.90
23827;DHT22;12094;50.822;4.376;2023-10-08T03:10:51;16.30;99.90
23827;DHT22;12094;50.822;4.376;2023-10-08T03:13:29;16.30;99.90
23827;DHT22;12094;50.822;4.376;2023-10-08T03:15:57;16.30;99.90
23827;DHT22;12094;50.822;4.376;2023-10-08T03:18:30;16.30;99.90
23827;DHT22;12094;50.822;4.376;2023-10-08T03:21:04;16.20;99.90
23827;DHT22;12094;50.822;4.376;2023-10-08T03:23:33;16.20;99.90
23827;DHT22;12094;50.822;4.376;2023-10-08T03:26:02;16.10;99.90
23827;DHT22;12094;50.822;4.376;2023-10-08T03:28:38;15.90;99.90
23827;DHT22;12094;50.822;4.376;2023-10-08T03:31:08;15.90;99.90
23827;DHT22;12094;50.822;4.376;2023-10-08T03:33:45;16.00;99.90
23827;DHT22;12094;50.822;4.376;2023-10-08T03:36:17;16.10;99.90
23827;DHT22;12094;50.822;4.376;2023-10-08T03:38:48;16.10;99.90
23827;DHT22;12094;50.822;4.376;2023-10-08T03:41:25;16.00;99.90
23827;DHT22;12094;50.822;4.376;2023-10-08T03:43:56;16.00;99.90
23827;DHT22;12094;50.822;4.376;2023-10-08T03:46:40;16.00;99.90
23827;DHT22;12094;50.822;4.376;2023-10-08T03:49:09;16.00;99.90
23827;DHT22;12094;50.822;4.376;2023-10-08T03:51:50;15.90;99.90
23827;DHT22;12094;50.822;4.376;2023-10-08T03:54:21;16.00;99.90
23827;DHT22;12094;50.822;4.376;2023-10-08T03:57:02;15.90;99.90
23827;DHT22;12094;50.822;4.376;2023-10-08T03:59:50;15.90;99.90
23827;DHT22;12094;50.822;4.376;2023-10-08T04:02:23;15.90;99.90
23827;DHT22;12094;50.822;4.376;2023-10-08T04:05:01;15.90;99.90
23827;DHT22;12094;50.822;4.376;2023-10-08T04:07:44;16.00;99.90
23827;DHT22;12094;50.822;4.376;2023-10-08T04:10:26;15.90;99.90
23827;DHT22;12094;50.822;4.376;2023-10-08T04:13:09;15.90;99.90
23827;DHT22;12094;50.822;4.376;2023-10-08T04:15:36;15.90;99.90
23827;DHT22;12094;50.822;4.376;2023-10-08T04:18:09;15.90;99.90
23827;DHT22;12094;50.822;4.376;2023-10-08T04:20:36;15.80;99.90
23827;DHT22;12094;50.822;4.376;2023-10-08T04:23:05;15.70;99.90
23827;DHT22;12094;50.822;4.376;2023-10-08T04:25:32;15.80;99.90
23827;DHT22;12094;50.822;4.376;2023-10-08T04:27:59;15.70;99.90
23827;DHT22;12094;50.822;4.376;2023-10-08T04:30:36;15.70;99.90
23827;DHT22;12094;50.822;4.376;2023-10-08T04:33:03;15.80;99.90
23827;DHT22;12094;50.822;4.376;2023-10-08T04:35:35;15.70;99.90
23827;DHT22;12094;50.822;4.376;2023-10-08T04:38:04;15.60;99.90
23827;DHT22;12094;50.822;4.376;2023-10-08T04:40:32;15.70;99.90
23827;DHT22;12094;50.822;4.376;2023-10-08T04:43:09;15.60;99.90
23827;DHT22;12094;50.822;4.376;2023-10-08T04:45:37;15.50;99.90
23827;DHT22;12094;50.822;4.376;2023-10-08T04:48:04;15.60;99.90
23827;DHT22;12094;50.822;4.376;2023-10-08T04:50:42;15.60;99.90
23827;DHT22;12094;50.822;4.376;2023-10-08T04:53:11;15.50;99.90
23827;DHT22;12094;50.822;4.376;2023-10-08T04:55:42;15.50;99.90
23827;DHT22;12094;50.822;4.376;2023-10-08T04:58:15;15.50;99.90
23827;DHT22;12094;50.822;4.376;2023-10-08T05:00:53;15.50;99.90
23827;DHT22;12094;50.822;4.376;2023-10-08T05:03:22;15.50;99.90
23827;DHT22;12094;50.822;4.376;2023-10-08T05:05:55;15.50;99.90
23827;DHT22;12094;50.822;4.376;2023-10-08T05:08:34;15.50;99.90
23827;DHT22;12094;50.822;4.376;2023-10-08T05:11:26;15.60;99.90
23827;DHT22;12094;50.822;4.376;2023-10-08T05:14:13;15.50;99.90
23827;DHT22;12094;50.822;4.376;2023-10-08T05:16:55;15.50;99.90
23827;DHT22;12094;50.822;4.376;2023-10-08T05:19:37;15.50;99.90
23827;DHT22;12094;50.822;4.376;2023-10-08T05:22:15;15.40;99.90
23827;DHT22;12094;50.822;4.376;2023-10-08T05:25:05;15.40;99.90
23827;DHT22;12094;50.822;4.376;2023-10-08T05:27:53;15.40;99.90
23827;DHT22;12094;50.822;4.376;2023-10-08T05:30:21;15.40;99.90
23827;DHT22;12094;50.822;4.376;2023-10-08T05:32:55;15.40;99.90
23827;DHT22;12094;50.822;4.376;2023-10-08T05:35:41;15.40;99.90
23827;DHT22;12094;50.822;4.376;2023-10-08T05:38:09;15.40;99.90
23827;DHT22;12094;50.822;4.376;2023-10-08T05:40:52;15.30;99.90
23827;DHT22;12094;50.822;4.376;2023-10-08T05:43:30;15.30;99.90
23827;DHT22;12094;50.822;4.376;2023-10-08T05:46:15;15.30;99.90
23827;DHT22;12094;50.822;4.376;2023-10-08T05:48:50;15.30;99.90
23827;DHT22;12094;50.822;4.376;2023-10-08T05:51:41;15.30;99.90
23827;DHT22;12094;50.822;4.376;2023-10-08T05:54:22;15.20;99.90
23827;DHT22;12094;50.822;4.376;2023-10-08T05:57:01;15.20;99.90
23827;DHT22;12094;50.822;4.376;2023-10-08T05:59:42;15.20;99.90
23827;DHT22;12094;50.822;4.376;2023-10-08T06:02:31;15.30;99.90
23827;DHT22;12094;50.822;4.376;2023-10-08T06:05:01;15.40;99.90
23827;DHT22;12094;50.822;4.376;2023-10-08T06:07:42;15.50;99.90
23827;DHT22;12094;50.822;4.376;2023-10-08T06:10:27;15.50;99.90
23827;DHT22;12094;50.822;4.376;2023-10-08T06:15:40;15.70;99.90
23827;DHT22;12094;50.822;4.376;2023-10-08T06:18:25;15.60;99.90
23827;DHT22;12094;50.822;4.376;2023-10-08T06:20:56;15.60;99.90
23827;DHT22;12094;50.822;4.376;2023-10-08T06:23:27;15.60;99.90
23827;DHT22;12094;50.822;4.376;2023-10-08T06:25:55;15.70;99.90
23827;DHT22;12094;50.822;4.376;2023-10-08T06:28:27;15.70;99.90
23827;DHT22;12094;50.822;4.376;2023-10-08T06:33:54;15.80;99.90
23827;DHT22;12094;50.822;4.376;2023-10-08T06:36:24;15.90;99.90
23827;DHT22;12094;50.822;4.376;2023-10-08T06:38:52;16.00;99.90
23827;DHT22;12094;50.822;4.376;2023-10-08T06:41:19;16.10;99.90
23827;DHT22;12094;50.822;4.376;2023-10-08T06:44:15;16.00;99.90
23827;DHT22;12094;50.822;4.376;2023-10-08T06:46:45;15.90;99.90
23827;DHT22;12094;50.822;4.376;2023-10-08T06:49:12;16.00;99.90
23827;DHT22;12094;50.822;4.376;2023-10-08T06:51:42;16.10;99.90
23827;DHT22;12094;50.822;4.376;2023-10-08T06:54:14;16.20;99.90
23827;DHT22;12094;50.822;4.376;2023-10-08T06:56:44;16.20;99.90
23827;DHT22;12094;50.822;4.376;2023-10-08T06:59:13;16.20;99.90
23827;DHT22;12094;50.822;4.376;2023-10-08T07:01:40;16.30;99.90
23827;DHT22;12094;50.822;4.376;2023-10-08T07:04:13;16.40;99.90
23827;DHT22;12094;50.822;4.376;2023-10-08T07:06:42;16.30;99.90
23827;DHT22;12094;50.822;4.376;2023-10-08T07:09:10;16.20;99.90
23827;DHT22;12094;50.822;4.376;2023-10-08T07:11:50;16.10;99.90
23827;DHT22;12094;50.822;4.376;2023-10-08T07:14:25;16.00;99.90
23827;DHT22;12094;50.822;4.376;2023-10-08T07:16:56;16.00;99.90
23827;DHT22;12094;50.822;4.376;2023-10-08T07:19:28;16.00;99.90
23827;DHT22;12094;50.822;4.376;2023-10-08T07:22:07;16.20;99.90
23827;DHT22;12094;50.822;4.376;2023-10-08T07:24:45;16.30;99.90
23827;DHT22;12094;50.822;4.376;2023-10-08T07:27:13;16.40;99.90
23827;DHT22;12094;50.822;4.376;2023-10-08T07:29:40;16.50;99.90
23827;DHT22;12094;50.822;4.376;2023-10-08T07:32:07;16.60;99.90
23827;DHT22;12094;50.822;4.376;2023-10-08T07:34:38;16.40;99.90
23827;DHT22;12094;50.822;4.376;2023-10-08T07:37:06;16.50;99.90
23827;DHT22;12094;50.822;4.376;2023-10-08T07:39:33;16.60;99.90
23827;DHT22;12094;50.822;4.376;2023-10-08T07:42:01;16.70;99.90
23827;DHT22;12094;50.822;4.376;2023-10-08T07:44:28;16.80;99.90
23827;DHT22;12094;50.822;4.376;2023-10-08T07:46:55;17.00;99.90
23827;DHT22;12094;50.822;4.376;2023-10-08T07:49:23;17.20;99.90
23827;DHT22;12094;50.822;4.376;2023-10-08T07:51:50;17.20;99.90
23827;DHT22;12094;50.822;4.376;2023-10-08T07:54:23;17.30;99.90
23827;DHT22;12094;50.822;4.376;2023-10-08T07:56:50;17.30;99.90
23827;DHT22;12094;50.822;4.376;2023-10-08T07:59:39;17.20;99.90
23827;DHT22;12094;50.822;4.376;2023-10-08T08:02:09;17.10;99.90
23827;DHT22;12094;50.822;4.376;2023-10-08T08:04:39;16.90;99.90
23827;DHT22;12094;50.822;4.376;2023-10-08T08:07:07;16.90;99.90
23827;DHT22;12094;50.822;4.376;2023-10-08T08:09:34;17.00;99.90
23827;DHT22;12094;50.822;4.376;2023-10-08T08:12:17;17.00;99.90
23827;DHT22;12094;50.822;4.376;2023-10-08T08:14:46;17.00;99.90
23827;DHT22;12094;50.822;4.376;2023-10-08T08:17:13;17.10;99.90
23827;DHT22;12094;50.822;4.376;2023-10-08T08:19:41;17.20;99.90
23827;DHT22;12094;50.822;4.376;2023-10-08T08:22:08;17.20;99.90
23827;DHT22;12094;50.822;4.376;2023-10-08T08:24:41;17.30;99.90
23827;DHT22;12094;50.822;4.376;2023-10-08T08:27:12;17.50;99.90
23827;DHT22;12094;50.822;4.376;2023-10-08T08:29:53;17.70;99.90
23827;DHT22;12094;50.822;4.376;2023-10-08T08:32:28;17.80;99.90
23827;DHT22;12094;50.822;4.376;2023-10-08T08:34:55;18.00;99.90
23827;DHT22;12094;50.822;4.376;2023-10-08T08:37:22;18.10;99.90
23827;DHT22;12094;50.822;4.376;2023-10-08T08:39:52;18.00;99.90
23827;DHT22;12094;50.822;4.376;2023-10-08T08:42:22;17.90;99.90
23827;DHT22;12094;50.822;4.376;2023-10-08T08:44:49;17.80;99.90
23827;DHT22;12094;50.822;4.376;2023-10-08T08:47:17;17.70;99.90
23827;DHT22;12094;50.822;4.376;2023-10-08T08:49:46;17.70;99.90
23827;DHT22;12094;50.822;4.376;2023-10-08T08:52:14;17.80;99.90
23827;DHT22;12094;50.822;4.376;2023-10-08T08:54:41;17.90;99.90
23827;DHT22;12094;50.822;4.376;2023-10-08T08:57:09;18.10;99.90
23827;DHT22;12094;50.822;4.376;2023-10-08T08:59:44;18.20;99.90
23827;DHT22;12094;50.822;4.376;2023-10-08T09:02:13;18.20;99.90
23827;DHT22;12094;50.822;4.376;2023-10-08T09:04:41;18.30;99.90
23827;DHT22;12094;50.822;4.376;2023-10-08T09:07:08;18.30;99.90
23827;DHT22;12094;50.822;4.376;2023-10-08T09:09:35;18.30;99.90
23827;DHT22;12094;50.822;4.376;2023-10-08T09:12:07;18.40;99.90
23827;DHT22;12094;50.822;4.376;2023-10-08T09:14:37;18.40;99.90
23827;DHT22;12094;50.822;4.376;2023-10-08T09:17:08;18.40;99.90
23827;DHT22;12094;50.822;4.376;2023-10-08T09:19:38;18.20;99.90
23827;DHT22;12094;50.822;4.376;2023-10-08T09:22:09;18.20;99.90
23827;DHT22;12094;50.822;4.376;2023-10-08T09:24:38;18.30;99.90
23827;DHT22;12094;50.822;4.376;2023-10-08T09:27:06;18.50;99.90
23827;DHT22;12094;50.822;4.376;2023-10-08T09:29:34;18.70;99.90
23827;DHT22;12094;50.822;4.376;2023-10-08T09:32:10;18.90;99.90
23827;DHT22;12094;50.822;4.376;2023-10-08T09:34:38;19.10;99.90
23827;DHT22;12094;50.822;4.376;2023-10-08T09:37:05;19.20;99.90
23827;DHT22;12094;50.822;4.376;2023-10-08T09:39:32;19.40;99.90
23827;DHT22;12094;50.822;4.376;2023-10-08T09:42:01;19.50;99.90
23827;DHT22;12094;50.822;4.376;2023-10-08T09:44:38;19.60;99.90
23827;DHT22;12094;50.822;4.376;2023-10-08T09:47:07;19.60;99.90
23827;DHT22;12094;50.822;4.376;2023-10-08T09:49:41;19.70;99.90
23827;DHT22;12094;50.822;4.376;2023-10-08T09:52:16;19.80;99.90
23827;DHT22;12094;50.822;4.376;2023-10-08T09:57:12;20.00;99.90
23827;DHT22;12094;50.822;4.376;2023-10-08T09:59:39;20.00;99.90
23827;DHT22;12094;50.822;4.376;2023-10-08T10:02:07;20.10;99.90
23827;DHT22;12094;50.822;4.376;2023-10-08T10:04:44;20.20;99.90
23827;DHT22;12094;50.822;4.376;2023-10-08T10:07:11;20.30;99.90
23827;DHT22;12094;50.822;4.376;2023-10-08T10:09:42;20.40;99.90
23827;DHT22;12094;50.822;4.376;2023-10-08T10:12:09;20.40;99.90
23827;DHT22;12094;50.822;4.376;2023-10-08T10:14:42;20.40;99.90
23827;DHT22;12094;50.822;4.376;2023-10-08T10:17:19;20.00;99.90
23827;DHT22;12094;50.822;4.376;2023-10-08T10:20:10;20.10;99.90
23827;DHT22;12094;50.822;4.376;2023-10-08T10:22:41;20.00;99.90
23827;DHT22;12094;50.822;4.376;2023-10-08T10:25:11;19.90;99.90
23827;DHT22;12094;50.822;4.376;2023-10-08T10:30:20;20.10;99.90
23827;DHT22;12094;50.822;4.376;2023-10-08T10:32:53;20.20;99.90
23827;DHT22;12094;50.822;4.376;2023-10-08T10:35:21;20.30;99.90
23827;DHT22;12094;50.822;4.376;2023-10-08T10:37:48;20.60;99.90
23827;DHT22;12094;50.822;4.376;2023-10-08T10:40:30;20.90;99.90
23827;DHT22;12094;50.822;4.376;2023-10-08T10:43:06;21.00;99.90
23827;DHT22;12094;50.822;4.376;2023-10-08T10:45:35;21.90;99.90
23827;DHT22;12094;50.822;4.376;2023-10-08T10:48:11;22.80;99.90
23827;DHT22;12094;50.822;4.376;2023-10-08T10:50:48;23.20;99.90
23827;DHT22;12094;50.822;4.376;2023-10-08T10:53:38;23.10;99.90
23827;DHT22;12094;50.822;4.376;2023-10-08T10:56:12;23.10;99.90
23827;DHT22;12094;50.822;4.376;2023-10-08T10:58:46;23.20;99.90
23827;DHT22;12094;50.822;4.376;2023-10-08T11:01:28;23.40;99.90
23827;DHT22;12094;50.822;4.376;2023-10-08T11:04:11;23.50;99.90
23827;DHT22;12094;50.822;4.376;2023-10-08T11:06:43;23.20;99.90
23827;DHT22;12094;50.822;4.376;2023-10-08T11:09:11;23.10;99.90
23827;DHT22;12094;50.822;4.376;2023-10-08T11:11:43;23.90;99.90
23827;DHT22;12094;50.822;4.376;2023-10-08T11:14:11;24.60;99.90
23827;DHT22;12094;50.822;4.376;2023-10-08T11:16:42;25.40;99.90
23827;DHT22;12094;50.822;4.376;2023-10-08T11:19:10;26.00;99.90
23827;DHT22;12094;50.822;4.376;2023-10-08T11:21:52;26.40;99.90
23827;DHT22;12094;50.822;4.376;2023-10-08T11:24:29;25.90;99.90
23827;DHT22;12094;50.822;4.376;2023-10-08T11:27:00;25.90;99.90
23827;DHT22;12094;50.822;4.376;2023-10-08T11:29:47;26.10;99.90
23827;DHT22;12094;50.822;4.376;2023-10-08T11:32:15;26.60;99.90
23827;DHT22;12094;50.822;4.376;2023-10-08T11:34:46;26.90;99.90
23827;DHT22;12094;50.822;4.376;2023-10-08T11:37:26;27.80;99.90
23827;DHT22;12094;50.822;4.376;2023-10-08T11:39:53;28.30;99.90
23827;DHT22;12094;50.822;4.376;2023-10-08T11:42:24;28.30;99.90
23827;DHT22;12094;50.822;4.376;2023-10-08T11:45:01;27.50;99.90
23827;DHT22;12094;50.822;4.376;2023-10-08T11:47:49;27.00;99.90
23827;DHT22;12094;50.822;4.376;2023-10-08T11:50:16;27.40;99.90
23827;DHT22;12094;50.822;4.376;2023-10-08T11:52:46;27.60;99.90
23827;DHT22;12094;50.822;4.376;2023-10-08T11:55:14;27.00;99.90
23827;DHT22;12094;50.822;4.376;2023-10-08T11:57:50;25.90;99.90
23827;DHT22;12094;50.822;4.376;2023-10-08T12:00:19;25.20;99.90
23827;DHT22;12094;50.822;4.376;2023-10-08T12:02:58;25.50;99.90
23827;DHT22;12094;50.822;4.376;2023-10-08T12:05:29;25.20;99.90
23827;DHT22;12094;50.822;4.376;2023-10-08T12:07:56;25.00;99.90
23827;DHT22;12094;50.822;4.376;2023-10-08T12:10:25;25.40;99.90
23827;DHT22;12094;50.822;4.376;2023-10-08T12:12:52;25.80;99.90
23827;DHT22;12094;50.822;4.376;2023-10-08T12:15:21;26.60;99.90
23827;DHT22;12094;50.822;4.376;2023-10-08T12:17:49;27.10;99.90
23827;DHT22;12094;50.822;4.376;2023-10-08T12:20:49;27.10;99.90
23827;DHT22;12094;50.822;4.376;2023-10-08T12:23:16;26.20;99.90
23827;DHT22;12094;50.822;4.376;2023-10-08T12:25:52;25.80;99.90
23827;DHT22;12094;50.822;4.376;2023-10-08T12:28:19;25.50;99.90
23827;DHT22;12094;50.822;4.376;2023-10-08T12:30:46;25.30;99.90
23827;DHT22;12094;50.822;4.376;2023-10-08T12:33:16;25.40;99.90
23827;DHT22;12094;50.822;4.376;2023-10-08T12:35:43;25.40;99.90
23827;DHT22;12094;50.822;4.376;2023-10-08T12:38:11;25.20;99.90
23827;DHT22;12094;50.822;4.376;2023-10-08T12:40:42;25.70;99.90
23827;DHT22;12094;50.822;4.376;2023-10-08T12:43:23;25.70;99.90
23827;DHT22;12094;50.822;4.376;2023-10-08T12:45:54;25.90;99.90
23827;DHT22;12094;50.822;4.376;2023-10-08T12:48:27;26.40;99.90
23827;DHT22;12094;50.822;4.376;2023-10-08T12:50:54;26.10;99.90
23827;DHT22;12094;50.822;4.376;2023-10-08T12:53:28;26.00;99.90
23827;DHT22;12094;50.822;4.376;2023-10-08T12:56:01;25.80;99.90
23827;DHT22;12094;50.822;4.376;2023-10-08T12:58:42;25.50;99.90
23827;DHT22;12094;50.822;4.376;2023-10-08T13:01:11;25.10;99.90
23827;DHT22;12094;50.822;4.376;2023-10-08T13:03:40;25.50;99.90
23827;DHT22;12094;50.822;4.376;2023-10-08T13:06:14;26.30;99.90
23827;DHT22;12094;50.822;4.376;2023-10-08T13:08:49;27.00;99.90
23827;DHT22;12094;50.822;4.376;2023-10-08T13:11:22;27.50;99.90
23827;DHT22;12094;50.822;4.376;2023-10-08T13:13:53;27.90;99.90
23827;DHT22;12094;50.822;4.376;2023-10-08T13:16:20;27.10;99.90
23827;DHT22;12094;50.822;4.376;2023-10-08T13:18:50;26.20;99.90
23827;DHT22;12094;50.822;4.376;2023-10-08T13:21:17;26.00;99.90
23827;DHT22;12094;50.822;4.376;2023-10-08T13:23:49;26.10;99.90
23827;DHT22;12094;50.822;4.376;2023-10-08T13:26:18;25.50;99.90
23827;DHT22;12094;50.822;4.376;2023-10-08T13:28:50;25.10;99.90
23827;DHT22;12094;50.822;4.376;2023-10-08T13:31:17;24.80;99.90
23827;DHT22;12094;50.822;4.376;2023-10-08T13:33:49;24.50;99.90
23827;DHT22;12094;50.822;4.376;2023-10-08T13:36:20;24.20;99.90
23827;DHT22;12094;50.822;4.376;2023-10-08T13:38:47;24.00;99.90
23827;DHT22;12094;50.822;4.376;2023-10-08T13:41:15;23.90;99.90
23827;DHT22;12094;50.822;4.376;2023-10-08T13:43:42;23.60;99.90
23827;DHT22;12094;50.822;4.376;2023-10-08T13:46:16;23.60;99.90
23827;DHT22;12094;50.822;4.376;2023-10-08T13:48:45;23.70;99.90
23827;DHT22;12094;50.822;4.376;2023-10-08T13:51:14;23.90;99.90
23827;DHT22;12094;50.822;4.376;2023-10-08T13:53:41;24.00;99.90
23827;DHT22;12094;50.822;4.376;2023-10-08T13:56:12;24.10;99.90
23827;DHT22;12094;50.822;4.376;2023-10-08T13:58:40;24.20;99.90
23827;DHT22;12094;50.822;4.376;2023-10-08T14:01:13;24.30;99.90
23827;DHT22;12094;50.822;4.376;2023-10-08T14:03:46;24.40;99.90
23827;DHT22;12094;50.822;4.376;2023-10-08T14:06:15;24.10;99.90
23827;DHT22;12094;50.822;4.376;2023-10-08T14:08:43;23.70;99.90
23827;DHT22;12094;50.822;4.376;2023-10-08T14:11:19;23.50;99.90
23827;DHT22;12094;50.822;4.376;2023-10-08T14:13:46;23.30;99.90
23827;DHT22;12094;50.822;4.376;2023-10-08T14:16:14;23.30;99.90
23827;DHT22;12094;50.822;4.376;2023-10-08T14:18:44;23.20;99.90
23827;DHT22;12094;50.822;4.376;2023-10-08T14:21:17;23.20;99.90
23827;DHT22;12094;50.822;4.376;2023-10-08T14:23:45;23.30;99.90
23827;DHT22;12094;50.822;4.376;2023-10-08T14:26:17;23.30;99.90
23827;DHT22;12094;50.822;4.376;2023-10-08T14:28:49;23.40;99.90
23827;DHT22;12094;50.822;4.376;2023-10-08T14:31:25;23.30;99.90
23827;DHT22;12094;50.822;4.376;2023-10-08T14:33:54;23.40;99.90
23827;DHT22;12094;50.822;4.376;2023-10-08T14:36:46;23.40;99.90
23827;DHT22;12094;50.822;4.376;2023-10-08T14:39:32;23.40;99.90
23827;DHT22;12094;50.822;4.376;2023-10-08T14:42:18;23.50;99.90
23827;DHT22;12094;50.822;4.376;2023-10-08T14:45:04;23.90;99.90
23827;DHT22;12094;50.822;4.376;2023-10-08T14:47:37;24.00;99.90
23827;DHT22;12094;50.822;4.376;2023-10-08T14:50:05;23.90;99.90
23827;DHT22;12094;50.822;4.376;2023-10-08T14:52:32;23.80;99.90
23827;DHT22;12094;50.822;4.376;2023-10-08T14:55:00;23.60;99.90
23827;DHT22;12094;50.822;4.376;2023-10-08T14:57:27;23.70;99.90
23827;DHT22;12094;50.822;4.376;2023-10-08T14:59:54;23.90;99.90
23827;DHT22;12094;50.822;4.376;2023-10-08T15:02:22;23.80;99.90
23827;DHT22;12094;50.822;4.376;2023-10-08T15:04:49;23.70;99.90
23827;DHT22;12094;50.822;4.376;2023-10-08T15:07:16;23.80;99.90
23827;DHT22;12094;50.822;4.376;2023-10-08T15:09:44;24.00;99.90
23827;DHT22;12094;50.822;4.376;2023-10-08T15:12:11;23.90;99.90
23827;DHT22;12094;50.822;4.376;2023-10-08T15:14:38;24.00;99.90
23827;DHT22;12094;50.822;4.376;2023-10-08T15:17:05;24.10;99.90
23827;DHT22;12094;50.822;4.376;2023-10-08T15:19:32;24.00;99.90
23827;DHT22;12094;50.822;4.376;2023-10-08T15:21:59;24.00;99.90
23827;DHT22;12094;50.822;4.376;2023-10-08T15:24:28;23.70;99.90
23827;DHT22;12094;50.822;4.376;2023-10-08T15:26:57;23.70;99.90
23827;DHT22;12094;50.822;4.376;2023-10-08T15:29:24;23.60;99.90
23827;DHT22;12094;50.822;4.376;2023-10-08T15:31:54;23.40;99.90
23827;DHT22;12094;50.822;4.376;2023-10-08T15:34:24;23.30;99.90
23827;DHT22;12094;50.822;4.376;2023-10-08T15:37:05;23.10;99.90
23827;DHT22;12094;50.822;4.376;2023-10-08T15:39:31;23.00;99.90
23827;DHT22;12094;50.822;4.376;2023-10-08T15:41:58;23.00;99.90
23827;DHT22;12094;50.822;4.376;2023-10-08T15:44:26;23.10;99.90
23827;DHT22;12094;50.822;4.376;2023-10-08T15:46:53;23.10;99.90
23827;DHT22;12094;50.822;4.376;2023-10-08T15:49:20;23.20;99.90
23827;DHT22;12094;50.822;4.376;2023-10-08T15:51:47;23.30;99.90
23827;DHT22;12094;50.822;4.376;2023-10-08T15:54:16;23.30;99.90
23827;DHT22;12094;50.822;4.376;2023-10-08T15:56:47;23.40;99.90
23827;DHT22;12094;50.822;4.376;2023-10-08T15:59:14;23.40;99.90
23827;DHT22;12094;50.822;4.376;2023-10-08T16:01:41;23.40;99.90
23827;DHT22;12094;50.822;4.376;2023-10-08T16:04:14;23.40;99.90
23827;DHT22;12094;50.822;4.376;2023-10-08T16:06:41;23.50;99.90
23827;DHT22;12094;50.822;4.376;2023-10-08T16:09:08;23.60;99.90
23827;DHT22;12094;50.822;4.376;2023-10-08T16:11:36;23.50;99.90
23827;DHT22;12094;50.822;4.376;2023-10-08T16:14:03;23.30;99.90
23827;DHT22;12094;50.822;4.376;2023-10-08T16:16:30;23.00;99.90
23827;DHT22;12094;50.822;4.376;2023-10-08T16:18:57;23.00;99.90
23827;DHT22;12094;50.822;4.376;2023-10-08T16:21:24;23.00;99.90
23827;DHT22;12094;50.822;4.376;2023-10-08T16:23:51;23.10;99.90
23827;DHT22;12094;50.822;4.376;2023-10-08T16:26:19;23.10;99.90
23827;DHT22;12094;50.822;4.376;2023-10-08T16:28:47;23.00;99.90
23827;DHT22;12094;50.822;4.376;2023-10-08T16:31:14;22.90;99.90
23827;DHT22;12094;50.822;4.376;2023-10-08T16:33:42;22.80;99.90
23827;DHT22;12094;50.822;4.376;2023-10-08T16:36:09;22.80;99.90